EHBK/MST METAR and TAF weather

Enter ICAO airport designator
Station Type Date Time Source
EHBK METAR 2019/05/25 15:55 UTC NOAA

EHBK 251555Z AUTO 34004KT 310V010 9999 NSC 17/09 Q1017 NOSIG


Station Type Date Time Source
EHBK Decoded METAR 2019/05/25 15:55 UTC NOAA

Maastricht Airport Zuid Limburg, Netherlands (EHBK) 50-55N 005-47E 116M
May 25, 2019 - 11:55 AM EDT / 2019.05.25 1555 UTC
Wind: from the NNW (340 degrees) at 5 MPH (4 KT) (direction variable):0
Visibility: greater than 7 mile(s):0
Temperature: 62 F (17 C)
Dew Point: 48 F (9 C)
Relative Humidity: 59%
Pressure (altimeter): 30.03 in. Hg (1017 hPa)
ob: EHBK 251555Z AUTO 34004KT 310V010 9999 NSC 17/09 Q1017 NOSIG
cycle: 16

Station Type Date Time Source
EHBK TAF 2019/05/25 12:27 UTC NOAA

TAF EHBK 251114Z 2512/2618 32005KT 9999 SCT035 PROB30
TEMPO 2518/2522 7000 -SHRA FEW030CB
BECMG 2608/2611 24012KT

Example: see airport list